createdAt,value
2019-05-09T00:01:06.606Z,19.93
2019-05-09T00:03:33.504Z,17.93
2019-05-09T00:05:58.650Z,19.87
2019-05-09T00:08:24.636Z,18.10
2019-05-09T00:10:53.287Z,17.07
2019-05-09T00:13:16.681Z,13.47
2019-05-09T00:15:43.708Z,15.37
2019-05-09T00:18:09.467Z,13.20
2019-05-09T00:20:36.200Z,15.37
2019-05-09T00:23:03.313Z,13.23
2019-05-09T00:25:28.227Z,13.90
2019-05-09T00:27:54.251Z,14.50
2019-05-09T00:30:20.249Z,14.37
2019-05-09T00:32:46.267Z,14.13
2019-05-09T00:35:14.126Z,14.23
2019-05-09T00:37:38.301Z,12.47
2019-05-09T00:40:04.347Z,11.40
2019-05-09T00:42:30.477Z,12.87
2019-05-09T00:44:56.454Z,13.83
2019-05-09T00:47:23.988Z,13.80
2019-05-09T00:49:49.253Z,14.80
2019-05-09T00:52:15.265Z,16.90
2019-05-09T00:54:43.665Z,19.90
2019-05-09T00:57:07.315Z,16.77
2019-05-09T00:59:33.395Z,18.27
2019-05-09T01:01:59.349Z,16.17
2019-05-09T01:04:25.327Z,17.97
2019-05-09T01:06:51.309Z,14.37
2019-05-09T01:09:17.336Z,14.70
2019-05-09T01:11:43.950Z,12.40
2019-05-09T01:14:09.364Z,12.57
2019-05-09T01:16:36.080Z,13.47
2019-05-09T01:19:03.650Z,13.60
2019-05-09T01:21:28.861Z,15.57
2019-05-09T01:23:54.925Z,17.57
2019-05-09T01:26:20.898Z,16.37
2019-05-09T01:28:47.643Z,14.30
2019-05-09T01:31:14.355Z,13.17
2019-05-09T01:33:40.347Z,12.30
2019-05-09T01:36:06.311Z,15.50
2019-05-09T01:38:33.937Z,11.90
2019-05-09T01:40:58.298Z,15.33
2019-05-09T01:43:24.493Z,14.63
2019-05-09T01:45:50.309Z,17.87
2019-05-09T01:48:16.304Z,16.23
2019-05-09T01:50:43.106Z,15.90
2019-05-09T01:53:08.354Z,14.50
2019-05-09T01:55:34.327Z,15.57
2019-05-09T01:58:00.319Z,15.77
2019-05-09T02:00:27.080Z,16.50
2019-05-09T02:02:54.167Z,13.57
2019-05-09T02:05:19.922Z,15.57
2019-05-09T02:07:45.912Z,16.27
2019-05-09T02:10:13.916Z,15.83
2019-05-09T02:12:38.106Z,14.97
2019-05-09T02:15:04.856Z,16.90
2019-05-09T02:17:33.423Z,14.00
2019-05-09T02:19:57.675Z,15.30
2019-05-09T02:22:23.666Z,16.70
2019-05-09T02:24:49.679Z,17.50
2019-05-09T02:27:16.467Z,19.03
2019-05-09T02:29:44.001Z,15.93
2019-05-09T02:32:08.582Z,16.90
2019-05-09T02:34:35.719Z,16.27
2019-05-09T02:37:00.663Z,17.10
2019-05-09T02:39:29.298Z,18.87
2019-05-09T02:42:04.937Z,16.27
2019-05-09T02:44:19.537Z,15.63
2019-05-09T02:46:44.755Z,15.60
2019-05-09T02:49:10.789Z,18.03
2019-05-09T02:51:38.698Z,16.37
2019-05-09T02:54:02.814Z,17.60
2019-05-09T02:56:29.619Z,17.90
2019-05-09T02:58:54.841Z,17.90
2019-05-09T03:01:20.841Z,14.77
2019-05-09T03:03:48.200Z,17.23
2019-05-09T03:06:13.609Z,14.93
2019-05-09T03:08:40.322Z,15.30
2019-05-09T03:11:09.352Z,20.57
2019-05-09T03:13:33.079Z,14.43
2019-05-09T03:15:59.067Z,15.93
2019-05-09T03:18:25.051Z,14.47
2019-05-09T03:20:51.071Z,15.10
2019-05-09T03:23:19.137Z,15.43
2019-05-09T03:25:43.865Z,14.73
2019-05-09T03:28:09.984Z,16.70
2019-05-09T03:30:39.405Z,16.77
2019-05-09T03:33:01.998Z,14.13
2019-05-09T03:35:27.989Z,14.40
2019-05-09T03:37:53.965Z,14.40
2019-05-09T03:40:19.989Z,17.00
2019-05-09T03:42:48.650Z,14.07
2019-05-09T03:45:12.788Z,15.00
2019-05-09T03:47:38.764Z,16.27
2019-05-09T03:50:04.740Z,16.87
2019-05-09T03:52:30.786Z,16.13
2019-05-09T03:54:57.913Z,16.73
2019-05-09T03:57:22.836Z,17.10
2019-05-09T03:59:48.815Z,16.07
2019-05-09T04:02:17.671Z,17.90
2019-05-09T04:04:41.586Z,13.87
2019-05-09T04:07:08.412Z,19.17
2019-05-09T04:09:33.593Z,15.17
2019-05-09T04:12:00.378Z,16.10
2019-05-09T04:14:28.222Z,16.10
2019-05-09T04:16:52.402Z,14.43
2019-05-09T04:19:19.130Z,14.47
2019-05-09T04:21:48.273Z,15.70
2019-05-09T04:24:11.888Z,11.77
2019-05-09T04:26:38.152Z,13.20
2019-05-09T04:29:03.959Z,13.70
2019-05-09T04:31:29.972Z,13.03
2019-05-09T04:33:57.418Z,12.60
2019-05-09T04:36:22.752Z,12.70
2019-05-09T04:38:49.462Z,16.37
2019-05-09T04:41:16.300Z,13.60
2019-05-09T04:43:41.657Z,11.60
2019-05-09T04:46:08.069Z,13.57
2019-05-09T04:48:33.686Z,12.87
2019-05-09T04:51:00.428Z,11.90
2019-05-09T04:53:28.573Z,11.17
2019-05-09T04:55:53.215Z,12.47
2019-05-09T04:58:19.410Z,11.33
2019-05-09T05:00:45.242Z,14.77
2019-05-09T05:03:11.980Z,14.90
2019-05-09T05:05:40.175Z,14.70
2019-05-09T05:08:07.537Z,15.03
2019-05-09T05:10:31.694Z,13.47
2019-05-09T05:12:58.453Z,16.73
2019-05-09T05:15:24.448Z,11.93
2019-05-09T05:17:50.511Z,15.00
2019-05-09T05:20:18.487Z,13.77
2019-05-09T05:22:42.531Z,12.67
2019-05-09T05:25:09.449Z,12.30
2019-05-09T05:27:35.321Z,16.80
2019-05-09T05:30:01.298Z,13.23
2019-05-09T05:32:28.311Z,11.10
2019-05-09T05:34:54.094Z,9.70
2019-05-09T05:37:20.804Z,9.57
2019-05-09T05:39:47.808Z,6.23
2019-05-09T05:42:13.609Z,7.93
2019-05-09T05:44:39.615Z,6.93
2019-05-09T05:47:07.705Z,7.60
2019-05-09T05:49:32.454Z,6.00
2019-05-09T05:51:58.416Z,5.93
2019-05-09T05:54:24.416Z,4.83
2019-05-09T05:56:51.154Z,6.57
2019-05-09T05:59:17.833Z,6.07
2019-05-09T06:01:43.226Z,7.40
2019-05-09T06:04:09.219Z,7.63
2019-05-09T06:06:37.336Z,5.40
2019-05-09T06:09:01.308Z,6.40
2019-05-09T06:11:28.095Z,5.13
2019-05-09T06:13:58.283Z,6.37
2019-05-09T06:16:22.245Z,6.67
2019-05-09T06:18:47.502Z,5.57
2019-05-09T06:21:11.495Z,6.87
2019-05-09T06:23:38.249Z,5.90
2019-05-09T06:26:05.953Z,7.30
2019-05-09T06:28:31.823Z,6.00
2019-05-09T06:30:58.470Z,5.60
2019-05-09T06:33:23.877Z,4.50
2019-05-09T06:35:50.618Z,3.87
2019-05-09T06:38:18.748Z,5.50
2019-05-09T06:40:43.395Z,5.23
2019-05-09T06:43:09.380Z,4.80
2019-05-09T06:45:39.147Z,4.70
2019-05-09T06:48:01.446Z,5.03
2019-05-09T06:50:27.457Z,5.37
2019-05-09T06:52:53.442Z,3.93
2019-05-09T06:55:19.476Z,5.43
2019-05-09T06:57:45.467Z,4.40
2019-05-09T07:00:11.460Z,6.90
2019-05-09T07:02:38.826Z,4.77
2019-05-09T07:05:04.247Z,5.20
2019-05-09T07:07:30.249Z,3.27
2019-05-09T07:09:58.371Z,5.73
2019-05-09T07:12:22.337Z,4.07
2019-05-09T07:14:48.816Z,2.97
2019-05-09T07:17:15.127Z,2.60
2019-05-09T07:19:43.776Z,3.00
2019-05-09T07:22:09.123Z,2.10
2019-05-09T07:24:33.210Z,3.70
2019-05-09T07:26:59.193Z,2.57
2019-05-09T07:29:25.229Z,2.03
2019-05-09T07:31:51.225Z,2.13
2019-05-09T07:34:18.463Z,2.63
2019-05-09T07:36:43.254Z,2.30
2019-05-09T07:39:09.966Z,3.07
2019-05-09T07:41:38.222Z,4.37
2019-05-09T07:44:02.040Z,3.83
2019-05-09T07:46:28.865Z,2.23
2019-05-09T07:48:54.120Z,3.47
2019-05-09T07:51:20.145Z,2.73
2019-05-09T07:53:48.209Z,2.30
2019-05-09T07:56:12.223Z,3.53
2019-05-09T07:58:38.216Z,3.00
2019-05-09T08:01:04.241Z,3.20
2019-05-09T08:03:30.204Z,3.17
2019-05-09T08:05:57.961Z,2.83
2019-05-09T08:08:22.304Z,2.90
2019-05-09T08:10:48.299Z,3.77
2019-05-09T08:13:15.029Z,3.40
2019-05-09T08:15:41.038Z,3.13
2019-05-09T08:18:08.472Z,2.77
2019-05-09T08:20:33.824Z,3.80
2019-05-09T08:23:02.202Z,2.20
2019-05-09T08:25:27.719Z,2.45
2019-05-09T08:27:51.919Z,2.20
2019-05-09T08:30:18.115Z,4.28
2019-05-09T08:32:43.971Z,2.97
2019-05-09T08:35:09.946Z,2.78
2019-05-09T08:37:38.689Z,3.25
2019-05-09T08:40:02.040Z,3.05
2019-05-09T08:42:29.331Z,3.53
2019-05-09T08:44:54.147Z,2.10
2019-05-09T08:47:20.151Z,3.25
2019-05-09T08:49:47.396Z,6.35
2019-05-09T08:52:16.051Z,1.92
2019-05-09T08:54:38.247Z,3.37
2019-05-09T08:57:04.250Z,2.20
2019-05-09T08:59:30.240Z,2.60
2019-05-09T09:02:14.066Z,2.12
2019-05-09T09:04:22.365Z,1.92
2019-05-09T09:06:48.401Z,3.92
2019-05-09T09:09:14.439Z,2.45
2019-05-09T09:11:40.451Z,4.50
2019-05-09T09:14:07.843Z,4.72
2019-05-09T09:16:32.502Z,2.35
2019-05-09T09:18:58.648Z,4.70
2019-05-09T09:21:24.561Z,2.60
2019-05-09T09:23:50.953Z,1.67
2019-05-09T09:26:18.386Z,4.47
2019-05-09T09:28:42.615Z,1.85
2019-05-09T09:31:09.320Z,3.20
2019-05-09T09:33:37.428Z,2.15
2019-05-09T09:36:01.371Z,4.03
2019-05-09T09:38:28.213Z,1.73
2019-05-09T09:40:54.184Z,3.15
2019-05-09T09:43:20.214Z,3.03
2019-05-09T09:45:48.027Z,1.87
2019-05-09T09:48:12.258Z,2.67
2019-05-09T09:50:38.504Z,2.08
2019-05-09T09:53:04.276Z,3.60
2019-05-09T09:55:30.981Z,3.15
2019-05-09T09:57:57.792Z,2.37
2019-05-09T10:00:22.986Z,2.53
2019-05-09T10:02:48.999Z,2.00
2019-05-09T10:05:14.959Z,1.77
2019-05-09T10:07:40.954Z,3.27
2019-05-09T10:10:07.892Z,4.23
2019-05-09T10:12:33.097Z,1.40
2019-05-09T10:14:59.155Z,2.43
2019-05-09T10:17:25.173Z,2.57
2019-05-09T10:19:51.188Z,1.83
2019-05-09T10:22:23.265Z,4.17
2019-05-09T10:24:43.272Z,4.30
2019-05-09T10:27:09.306Z,2.17
2019-05-09T10:29:35.317Z,1.70
2019-05-09T10:32:01.310Z,3.80
2019-05-09T10:34:28.784Z,5.87
2019-05-09T10:36:53.344Z,2.50
2019-05-09T10:39:19.355Z,2.47
2019-05-09T10:41:45.334Z,3.33
2019-05-09T10:44:11.360Z,3.13
2019-05-09T10:46:51.670Z,1.73
2019-05-09T10:49:03.424Z,2.80
2019-05-09T10:51:29.430Z,4.13
2019-05-09T10:53:55.456Z,5.53
2019-05-09T10:56:21.457Z,5.53
2019-05-09T10:58:48.272Z,3.73
2019-05-09T11:01:13.499Z,2.50
2019-05-09T11:03:39.557Z,2.83
2019-05-09T11:06:05.627Z,2.00
2019-05-09T11:08:31.605Z,4.00
2019-05-09T11:10:58.104Z,3.80
2019-05-09T11:13:23.659Z,2.70
2019-05-09T11:15:49.673Z,2.03
2019-05-09T11:18:15.652Z,4.57
2019-05-09T11:20:41.648Z,3.83
2019-05-09T11:23:08.246Z,3.20
2019-05-09T11:25:33.694Z,3.97
2019-05-09T11:28:11.143Z,3.00
2019-05-09T11:30:27.966Z,4.50
2019-05-09T11:32:51.824Z,3.83
2019-05-09T11:35:17.880Z,5.10
2019-05-09T11:37:44.594Z,4.90
2019-05-09T11:40:10.598Z,3.30
2019-05-09T11:42:38.119Z,4.57
2019-05-09T11:45:02.644Z,4.00
2019-05-09T11:47:39.509Z,8.10
2019-05-09T11:49:54.707Z,5.80
2019-05-09T11:52:20.719Z,2.87
2019-05-09T11:54:48.229Z,4.43
2019-05-09T11:57:12.755Z,3.53
2019-05-09T11:59:38.791Z,2.93
2019-05-09T12:02:04.774Z,5.30
2019-05-09T12:04:30.807Z,3.07
2019-05-09T12:06:57.693Z,6.90
2019-05-09T12:09:22.881Z,3.20
2019-05-09T12:11:48.912Z,3.47
2019-05-09T12:14:14.894Z,4.40
2019-05-09T12:16:40.945Z,4.83
2019-05-09T12:19:06.929Z,5.10
2019-05-09T12:21:33.696Z,4.20
2019-05-09T12:23:59.701Z,3.50
2019-05-09T12:26:28.840Z,2.93
2019-05-09T12:28:52.653Z,7.03
2019-05-09T12:31:18.592Z,6.97
2019-05-09T12:33:44.598Z,4.90
2019-05-09T12:36:10.661Z,2.10
2019-05-09T12:38:38.838Z,2.53
2019-05-09T12:41:02.737Z,2.77
2019-05-09T12:43:28.734Z,3.37
2019-05-09T12:45:54.730Z,3.47
2019-05-09T12:48:21.459Z,3.50
2019-05-09T12:50:48.821Z,4.40
2019-05-09T12:53:14.278Z,3.13
2019-05-09T12:55:40.320Z,3.53
2019-05-09T12:58:06.293Z,3.27
2019-05-09T13:00:33.054Z,3.50
2019-05-09T13:02:59.487Z,3.33
2019-05-09T13:05:27.253Z,3.57
2019-05-09T13:07:51.195Z,3.47
2019-05-09T13:10:19.527Z,4.77
2019-05-09T13:12:44.020Z,4.80
2019-05-09T13:15:10.037Z,4.57
2019-05-09T13:17:38.319Z,5.40
2019-05-09T13:20:02.111Z,4.27
2019-05-09T13:22:28.451Z,3.00
2019-05-09T13:24:54.158Z,3.33
2019-05-09T13:27:20.179Z,6.00
2019-05-09T13:29:48.968Z,5.13
2019-05-09T13:32:12.221Z,3.70
2019-05-09T13:34:38.255Z,5.03
2019-05-09T13:37:04.234Z,2.80
2019-05-09T13:39:30.279Z,4.67
2019-05-09T13:41:58.313Z,3.80
2019-05-09T13:44:22.345Z,3.10
2019-05-09T13:46:48.993Z,6.03
2019-05-09T13:49:15.809Z,4.53
2019-05-09T13:51:50.028Z,3.53
2019-05-09T13:54:07.284Z,4.13
2019-05-09T13:56:33.287Z,6.13
2019-05-09T13:58:59.302Z,4.03
2019-05-09T14:01:25.264Z,3.50
2019-05-09T14:03:51.272Z,4.67
2019-05-09T14:06:18.014Z,6.03
2019-05-09T14:08:44.036Z,4.83
2019-05-09T14:11:10.022Z,4.70
2019-05-09T14:13:38.316Z,3.43
2019-05-09T14:16:15.781Z,4.07
2019-05-09T14:18:28.094Z,4.43
2019-05-09T14:20:54.086Z,4.13
2019-05-09T14:23:20.294Z,4.13
2019-05-09T14:25:51.319Z,5.23
2019-05-09T14:28:12.940Z,6.37
2019-05-09T14:30:39.097Z,3.90
2019-05-09T14:33:04.981Z,6.57
2019-05-09T14:35:30.964Z,5.73
2019-05-09T14:37:59.083Z,4.77
2019-05-09T14:40:23.071Z,4.20
2019-05-09T14:42:49.807Z,6.37
2019-05-09T14:45:18.117Z,4.63
2019-05-09T14:47:42.801Z,6.20
2019-05-09T14:50:09.972Z,6.83
2019-05-09T14:52:34.659Z,5.33
2019-05-09T14:55:00.673Z,4.23
2019-05-09T14:57:28.605Z,7.00
2019-05-09T14:59:52.750Z,6.20
2019-05-09T15:02:18.743Z,5.23
2019-05-09T15:04:44.811Z,5.43
2019-05-09T15:07:10.781Z,6.20
2019-05-09T15:09:37.528Z,5.63
2019-05-09T15:12:03.508Z,4.20
2019-05-09T15:14:29.532Z,5.50
2019-05-09T15:16:57.540Z,5.37
2019-05-09T15:19:21.559Z,4.20
2019-05-09T15:21:48.683Z,6.80
2019-05-09T15:24:13.638Z,8.40
2019-05-09T15:26:40.350Z,3.93
2019-05-09T15:29:07.950Z,3.40
2019-05-09T15:31:32.452Z,3.80
2019-05-09T15:33:59.170Z,4.80
2019-05-09T15:36:25.213Z,3.90
2019-05-09T15:38:51.203Z,4.43
2019-05-09T15:41:18.495Z,4.90
2019-05-09T15:43:44.040Z,3.60
2019-05-09T15:46:10.040Z,4.30
2019-05-09T15:48:38.011Z,5.70
2019-05-09T15:51:02.095Z,4.50
2019-05-09T15:53:28.064Z,3.90
2019-05-09T15:55:54.108Z,3.43
2019-05-09T15:58:20.835Z,3.57
2019-05-09T16:00:47.783Z,3.83
2019-05-09T16:03:12.882Z,3.07
2019-05-09T16:05:38.916Z,3.10
2019-05-09T16:08:08.261Z,5.83
2019-05-09T16:10:31.689Z,3.93
2019-05-09T16:12:58.427Z,2.40
2019-05-09T16:15:28.156Z,3.90
2019-05-09T16:17:51.201Z,5.07
2019-05-09T16:20:22.954Z,4.73
2019-05-09T16:22:43.255Z,3.93
2019-05-09T16:25:09.255Z,4.10
2019-05-09T16:27:37.680Z,3.90
2019-05-09T16:30:01.305Z,3.70
2019-05-09T16:32:28.044Z,4.33
2019-05-09T16:34:54.025Z,5.40
2019-05-09T16:37:20.015Z,3.73
2019-05-09T16:39:47.625Z,3.97
2019-05-09T16:42:12.075Z,3.60
2019-05-09T16:44:41.611Z,4.00
2019-05-09T16:47:04.101Z,4.53
2019-05-09T16:49:30.834Z,5.60
2019-05-09T16:51:58.235Z,3.73
2019-05-09T16:54:23.640Z,5.23
2019-05-09T16:56:49.630Z,5.83
2019-05-09T16:59:17.905Z,5.57
2019-05-09T17:01:46.228Z,6.50
2019-05-09T17:04:09.239Z,7.40
2019-05-09T17:06:38.129Z,2.63
2019-05-09T17:09:02.025Z,2.53
2019-05-09T17:11:28.015Z,5.37
2019-05-09T17:13:54.026Z,7.10
2019-05-09T17:16:20.052Z,2.83
2019-05-09T17:18:48.469Z,3.63
2019-05-09T17:21:18.237Z,4.33
2019-05-09T17:23:38.529Z,2.90
2019-05-09T17:26:04.196Z,1.53
2019-05-09T17:28:30.201Z,2.03
2019-05-09T17:30:57.857Z,2.10
2019-05-09T17:33:30.626Z,3.43
2019-05-09T17:35:57.880Z,4.80
2019-05-09T17:38:23.403Z,2.20
2019-05-09T17:40:50.109Z,4.80
2019-05-09T17:43:18.084Z,2.70
2019-05-09T17:45:42.355Z,2.53
2019-05-09T17:48:08.694Z,5.13
2019-05-09T17:50:34.281Z,2.30
2019-05-09T17:53:00.379Z,2.23
2019-05-09T17:55:26.375Z,2.83
2019-05-09T17:57:53.144Z,2.77
2019-05-09T18:00:21.850Z,1.93
2019-05-09T18:02:45.223Z,3.50
2019-05-09T18:05:11.232Z,2.30
2019-05-09T18:07:37.745Z,1.47
2019-05-09T18:10:03.260Z,1.63
2019-05-09T18:12:29.314Z,2.00
2019-05-09T18:14:55.310Z,3.10
2019-05-09T18:17:21.341Z,2.83
2019-05-09T18:19:47.335Z,2.47
2019-05-09T18:22:14.284Z,2.80
2019-05-09T18:24:41.042Z,2.60
2019-05-09T18:27:07.697Z,3.07
2019-05-09T18:29:33.142Z,6.70
2019-05-09T18:31:59.108Z,2.73
2019-05-09T18:34:25.149Z,3.30
2019-05-09T18:36:51.141Z,4.73
2019-05-09T18:39:18.576Z,2.60
2019-05-09T18:41:43.218Z,2.80
2019-05-09T18:44:09.243Z,4.23
2019-05-09T18:46:35.244Z,3.07
2019-05-09T18:49:01.994Z,1.93
2019-05-09T18:51:28.675Z,3.47
2019-05-09T18:53:54.061Z,2.10
2019-05-09T18:56:20.061Z,4.03
2019-05-09T18:58:46.824Z,3.33
2019-05-09T19:01:12.854Z,3.67
2019-05-09T19:03:38.870Z,2.67
2019-05-09T19:06:04.889Z,2.80
2019-05-09T19:08:30.878Z,3.13
2019-05-09T19:10:57.671Z,2.60
2019-05-09T19:13:23.652Z,2.57
2019-05-09T19:15:50.405Z,4.60
2019-05-09T19:18:16.386Z,2.43
2019-05-09T19:20:42.418Z,3.47
2019-05-09T19:23:09.177Z,3.13
2019-05-09T19:25:35.957Z,3.77
2019-05-09T19:28:01.940Z,3.33
2019-05-09T19:30:28.689Z,2.77
2019-05-09T19:32:54.691Z,3.73
2019-05-09T19:35:20.727Z,3.97
2019-05-09T19:37:47.459Z,3.60
2019-05-09T19:40:19.814Z,3.30
2019-05-09T19:42:41.047Z,3.13
2019-05-09T19:45:07.049Z,4.10
2019-05-09T19:47:33.058Z,5.03
2019-05-09T19:49:59.074Z,4.33
2019-05-09T19:52:37.375Z,4.20
2019-05-09T19:54:51.893Z,7.53
2019-05-09T19:57:18.613Z,4.13
2019-05-09T19:59:44.623Z,7.50
2019-05-09T20:02:10.650Z,5.43
2019-05-09T20:04:36.640Z,5.33
2019-05-09T20:07:02.635Z,4.27
2019-05-09T20:09:28.636Z,3.67
2019-05-09T20:11:54.662Z,3.80
2019-05-09T20:14:20.667Z,4.77
2019-05-09T20:16:46.694Z,5.10
2019-05-09T20:19:12.714Z,5.80
2019-05-09T20:21:38.713Z,7.70
2019-05-09T20:24:04.754Z,6.17
2019-05-09T20:26:30.809Z,7.73
2019-05-09T20:28:57.522Z,5.77
2019-05-09T20:31:23.555Z,7.73
2019-05-09T20:33:49.581Z,6.03
2019-05-09T20:36:15.608Z,4.90
2019-05-09T20:38:41.597Z,6.17
2019-05-09T20:41:07.596Z,5.90
2019-05-09T20:43:33.615Z,8.20
2019-05-09T20:45:59.642Z,4.90
2019-05-09T20:48:25.693Z,4.80
2019-05-09T20:50:51.704Z,5.03
2019-05-09T20:53:17.689Z,5.03
2019-05-09T20:55:44.427Z,5.90
2019-05-09T20:58:10.433Z,4.67
2019-05-09T21:00:36.451Z,6.47
2019-05-09T21:03:02.450Z,8.87
2019-05-09T21:05:28.490Z,8.40
2019-05-09T21:07:54.667Z,5.03
2019-05-09T21:10:20.891Z,4.80
2019-05-09T21:12:46.865Z,5.37
2019-05-09T21:15:12.876Z,8.17
2019-05-09T21:17:38.888Z,5.60
2019-05-09T21:20:04.881Z,5.43
2019-05-09T21:22:31.643Z,4.63
2019-05-09T21:24:57.650Z,9.77
2019-05-09T21:27:24.412Z,6.33
2019-05-09T21:29:50.403Z,5.77
2019-05-09T21:32:17.148Z,7.40
2019-05-09T21:34:43.867Z,6.37
2019-05-09T21:37:09.938Z,5.83
2019-05-09T21:39:36.012Z,5.97
2019-05-09T21:42:02.123Z,5.13
2019-05-09T21:44:28.117Z,6.03
2019-05-09T21:46:54.162Z,9.33
2019-05-09T21:49:20.176Z,5.87
2019-05-09T21:51:46.181Z,6.90
2019-05-09T21:54:12.142Z,7.17
2019-05-09T21:56:38.147Z,5.87
2019-05-09T21:59:04.211Z,6.33
2019-05-09T22:01:30.225Z,7.40
2019-05-09T22:03:56.269Z,7.87
2019-05-09T22:06:22.990Z,6.73
2019-05-09T22:08:49.017Z,7.57
2019-05-09T22:11:15.031Z,7.63
2019-05-09T22:13:41.049Z,5.70
2019-05-09T22:16:07.033Z,7.00
2019-05-09T22:18:33.077Z,8.67
2019-05-09T22:20:59.060Z,6.73
2019-05-09T22:23:25.082Z,7.43
2019-05-09T22:25:51.097Z,10.10
2019-05-09T22:28:17.168Z,6.53
2019-05-09T22:30:43.164Z,9.13
2019-05-09T22:33:09.202Z,5.93
2019-05-09T22:35:35.177Z,6.97
2019-05-09T22:38:01.190Z,9.27
2019-05-09T22:40:27.164Z,7.90
2019-05-09T22:42:53.185Z,8.00
2019-05-09T22:45:19.176Z,9.30
2019-05-09T22:47:45.195Z,10.10
2019-05-09T22:50:11.185Z,8.87
2019-05-09T22:52:37.203Z,6.90
2019-05-09T22:55:03.195Z,7.03
2019-05-09T22:57:29.192Z,8.93
2019-05-09T22:59:55.195Z,6.83
2019-05-09T23:02:21.192Z,7.53
2019-05-09T23:04:47.297Z,7.67
2019-05-09T23:07:14.102Z,7.67
2019-05-09T23:09:40.099Z,9.07
2019-05-09T23:12:06.075Z,8.23
2019-05-09T23:14:32.805Z,8.80
2019-05-09T23:16:58.807Z,8.23
2019-05-09T23:19:24.830Z,10.23
2019-05-09T23:21:50.875Z,10.03
2019-05-09T23:24:28.110Z,9.87
2019-05-09T23:26:43.696Z,10.03
2019-05-09T23:29:09.738Z,8.50
2019-05-09T23:31:35.729Z,9.67
2019-05-09T23:34:01.725Z,8.37
2019-05-09T23:36:28.456Z,10.07
2019-05-09T23:38:55.221Z,7.80
2019-05-09T23:41:21.195Z,10.63
2019-05-09T23:43:47.204Z,7.57
2019-05-09T23:46:13.181Z,11.27
2019-05-09T23:48:39.175Z,10.07
2019-05-09T23:51:05.147Z,11.23
2019-05-09T23:53:31.168Z,11.13
2019-05-09T23:55:57.127Z,11.80
2019-05-09T23:58:23.094Z,9.73
